Terminal Aerodrome Forecast
Issued by NWS

Home | Current Version | Previous Version | Text Only | Print | Product List | Glossary On
Versions: 1 2 3 4 5 6 7 8 9 10 11 12 13 14
000
FTUS43 KEAX 291100
TAFMKC
TAF
KMKC 291120Z 2912/3012 19012G20KT P6SM VCSH BKN060 OVC100
     FM291500 27012G22KT P6SM SCT100
     FM292000 32015G25KT P6SM SCT100
     FM300000 30005KT P6SM SKC=

USA.gov is the U.S. government's official web portal to all federal, state and local government web resources and services.